createdAt,value
2018-08-16T00:01:43.335Z,78.10
2018-08-16T00:06:46.745Z,78.40
2018-08-16T00:11:50.013Z,77.50
2018-08-16T00:16:53.383Z,77.30
2018-08-16T00:21:56.710Z,77.80
2018-08-16T00:27:00.063Z,76.80
2018-08-16T00:32:03.420Z,76.90
2018-08-16T00:37:06.730Z,76.70
2018-08-16T00:42:10.117Z,76.20
2018-08-16T00:47:13.440Z,76.40
2018-08-16T00:52:16.734Z,77.40
2018-08-16T00:57:20.047Z,76.50
2018-08-16T01:02:23.608Z,76.70
2018-08-16T01:07:26.978Z,76.90
2018-08-16T01:12:30.333Z,77.30
2018-08-16T01:17:33.724Z,76.80
2018-08-16T01:22:37.171Z,76.50
2018-08-16T01:27:40.532Z,77.00
2018-08-16T01:32:43.867Z,77.00
2018-08-16T01:37:47.147Z,77.10
2018-08-16T01:42:50.470Z,76.90
2018-08-16T01:47:53.792Z,77.00
2018-08-16T01:52:57.236Z,77.10
2018-08-16T01:58:00.641Z,77.20
2018-08-16T02:03:04.010Z,77.30
2018-08-16T02:08:07.360Z,77.40
2018-08-16T02:13:10.733Z,77.50
2018-08-16T02:18:14.071Z,77.60
2018-08-16T02:23:17.465Z,77.50
2018-08-16T02:28:21.019Z,77.90
2018-08-16T02:33:24.421Z,77.90
2018-08-16T02:38:27.711Z,78.10
2018-08-16T02:43:31.029Z,78.40
2018-08-16T02:48:34.399Z,78.40
2018-08-16T02:53:37.717Z,78.60
2018-08-16T02:58:41.068Z,77.90
2018-08-16T03:03:44.409Z,78.80
2018-08-16T03:08:47.766Z,78.40
2018-08-16T03:13:51.140Z,78.50
2018-08-16T03:18:54.476Z,79.10
2018-08-16T03:23:57.843Z,78.60
2018-08-16T03:29:01.316Z,78.80
2018-08-16T03:34:04.688Z,78.80
2018-08-16T03:39:09.361Z,78.90
2018-08-16T03:44:12.709Z,79.00
2018-08-16T03:49:15.997Z,78.90
2018-08-16T03:54:19.344Z,78.80
2018-08-16T03:59:26.232Z,79.40
2018-08-16T04:04:29.573Z,79.10
2018-08-16T04:09:32.920Z,78.70
2018-08-16T04:14:36.338Z,78.40
2018-08-16T04:19:39.729Z,78.80
2018-08-16T04:24:43.111Z,78.20
2018-08-16T04:29:46.704Z,78.80
2018-08-16T04:34:50.115Z,78.40
2018-08-16T04:39:53.420Z,78.90
2018-08-16T04:44:56.902Z,78.70
2018-08-16T04:50:00.341Z,78.10
2018-08-16T04:55:04.481Z,78.10
2018-08-16T05:00:10.575Z,77.50
2018-08-16T05:05:14.045Z,77.30
2018-08-16T05:10:17.391Z,76.60
2018-08-16T05:15:20.690Z,76.20
2018-08-16T05:20:24.110Z,75.00
2018-08-16T05:25:27.523Z,74.20
2018-08-16T05:30:31.572Z,73.50
2018-08-16T05:35:34.911Z,72.20
2018-08-16T05:40:38.401Z,69.50
2018-08-16T05:45:41.891Z,70.20
2018-08-16T05:50:45.236Z,68.90
2018-08-16T05:55:48.520Z,67.80
2018-08-16T06:00:51.827Z,68.00
2018-08-16T06:05:55.231Z,66.20
2018-08-16T06:10:58.552Z,66.80
2018-08-16T06:16:01.933Z,66.40
2018-08-16T06:21:05.331Z,65.40
2018-08-16T06:26:08.891Z,65.60
2018-08-16T06:31:12.264Z,63.80
2018-08-16T06:36:15.627Z,63.50
2018-08-16T06:41:19.103Z,63.70
2018-08-16T06:46:22.626Z,63.50
2018-08-16T06:51:25.924Z,64.70
2018-08-16T06:56:29.406Z,64.00
2018-08-16T07:01:32.895Z,62.90
2018-08-16T07:06:36.240Z,62.90
2018-08-16T07:11:39.520Z,63.60
2018-08-16T07:16:42.846Z,64.00
2018-08-16T07:21:46.246Z,63.60
2018-08-16T07:26:49.555Z,63.70
2018-08-16T07:31:53.120Z,63.40
2018-08-16T07:36:56.875Z,62.40
2018-08-16T07:42:00.324Z,62.60
2018-08-16T07:47:04.070Z,62.70
2018-08-16T07:52:08.142Z,63.50
2018-08-16T07:57:11.694Z,64.60
2018-08-16T08:02:15.417Z,66.30
2018-08-16T08:07:19.069Z,66.60
2018-08-16T08:12:22.766Z,66.30
2018-08-16T08:17:26.474Z,65.80
2018-08-16T08:22:30.167Z,67.60
2018-08-16T08:27:33.936Z,67.00
2018-08-16T08:32:37.610Z,68.30
2018-08-16T08:37:52.337Z,67.50
2018-08-16T08:42:55.932Z,68.00
2018-08-16T08:47:59.589Z,66.10
2018-08-16T08:53:14.370Z,65.80
2018-08-16T08:58:29.204Z,65.40
2018-08-16T09:03:32.889Z,65.10
2018-08-16T09:08:36.534Z,64.60
2018-08-16T09:13:52.200Z,64.20
2018-08-16T09:18:56.268Z,65.40
2018-08-16T09:23:59.962Z,64.70
2018-08-16T09:30:08.705Z,63.60
2018-08-16T09:35:12.350Z,63.90
2018-08-16T09:40:16.035Z,63.30
2018-08-16T09:45:30.798Z,62.30
2018-08-16T09:50:34.461Z,62.10
2018-08-16T09:55:38.169Z,60.70
2018-08-16T10:00:47.051Z,62.00
2018-08-16T10:05:50.690Z,60.90
2018-08-16T10:10:54.300Z,59.90
2018-08-16T10:15:58.007Z,60.50
2018-08-16T10:21:01.672Z,58.50
2018-08-16T10:26:05.353Z,58.00
2018-08-16T10:31:08.996Z,57.00
2018-08-16T10:36:13.476Z,57.70
2018-08-16T10:41:17.082Z,56.10
2018-08-16T10:46:20.771Z,58.70
2018-08-16T10:51:24.378Z,56.30
2018-08-16T10:56:28.098Z,57.00
2018-08-16T11:01:31.749Z,55.20
2018-08-16T11:06:35.421Z,54.90
2018-08-16T11:11:39.506Z,52.20
2018-08-16T11:16:43.080Z,55.20
2018-08-16T11:21:46.758Z,53.80
2018-08-16T11:26:55.055Z,55.60
2018-08-16T11:31:58.790Z,52.60
2018-08-16T11:37:02.396Z,53.80
2018-08-16T11:42:05.998Z,54.90
2018-08-16T11:47:09.635Z,54.10
2018-08-16T11:52:13.339Z,52.50
2018-08-16T11:57:16.977Z,52.80
2018-08-16T12:02:20.663Z,53.30
2018-08-16T12:07:24.371Z,53.40
2018-08-16T12:12:28.037Z,52.40
2018-08-16T12:17:31.688Z,51.10
2018-08-16T12:22:35.320Z,50.70
2018-08-16T12:27:38.964Z,50.70
2018-08-16T12:32:42.701Z,52.40
2018-08-16T12:37:46.404Z,50.00
2018-08-16T12:42:50.003Z,49.80
2018-08-16T12:47:53.631Z,51.70
2018-08-16T12:52:57.332Z,51.10
2018-08-16T12:58:01.075Z,48.60
2018-08-16T13:03:04.813Z,49.90
2018-08-16T13:08:08.754Z,51.90
2018-08-16T13:13:12.553Z,48.90
2018-08-16T13:18:16.323Z,49.40
2018-08-16T13:23:20.112Z,50.20
2018-08-16T13:28:23.764Z,49.60
2018-08-16T13:33:27.888Z,48.00
2018-08-16T13:38:31.561Z,49.50
2018-08-16T13:43:35.173Z,48.80
2018-08-16T13:48:38.847Z,47.30
2018-08-16T13:53:42.368Z,49.70
2018-08-16T13:58:45.929Z,47.80
2018-08-16T14:03:49.729Z,48.80
2018-08-16T14:08:53.382Z,47.10
2018-08-16T14:13:56.998Z,47.40
2018-08-16T14:19:00.866Z,46.70
2018-08-16T14:24:05.860Z,48.00
2018-08-16T14:29:09.714Z,47.50
2018-08-16T14:34:13.375Z,45.80
2018-08-16T14:39:16.993Z,48.00
2018-08-16T14:44:20.676Z,45.70
2018-08-16T14:49:24.372Z,48.30
2018-08-16T14:54:28.043Z,46.40
2018-08-16T14:59:31.847Z,46.60
2018-08-16T15:04:35.449Z,47.90
2018-08-16T15:09:39.077Z,48.00
2018-08-16T15:14:42.654Z,49.00
2018-08-16T15:19:46.350Z,49.30
2018-08-16T15:24:49.927Z,50.30
2018-08-16T15:29:53.584Z,50.60
2018-08-16T15:34:57.254Z,52.10
2018-08-16T15:40:00.837Z,52.30
2018-08-16T15:45:04.708Z,51.60
2018-08-16T15:50:08.357Z,51.30
2018-08-16T15:55:12.025Z,52.20
2018-08-16T16:00:15.635Z,52.50
2018-08-16T16:05:19.282Z,51.00
2018-08-16T16:10:23.034Z,51.30
2018-08-16T16:15:26.669Z,52.10
2018-08-16T16:20:30.354Z,52.60
2018-08-16T16:25:34.003Z,52.20
2018-08-16T16:30:37.579Z,52.70
2018-08-16T16:35:41.150Z,53.50
2018-08-16T16:40:44.724Z,53.40
2018-08-16T16:45:48.419Z,54.00
2018-08-16T16:50:52.063Z,53.30
2018-08-16T16:55:55.830Z,52.80
2018-08-16T17:00:59.437Z,52.80
2018-08-16T17:06:03.226Z,53.10
2018-08-16T17:11:06.984Z,54.20
2018-08-16T17:16:11.062Z,54.10
2018-08-16T17:21:14.692Z,54.80
2018-08-16T17:26:18.292Z,55.20
2018-08-16T17:31:22.140Z,56.40
2018-08-16T17:36:25.822Z,56.40
2018-08-16T17:41:29.515Z,56.80
2018-08-16T17:46:33.124Z,56.80
2018-08-16T17:51:36.733Z,57.00
2018-08-16T17:56:40.601Z,57.50
2018-08-16T18:01:44.233Z,57.70
2018-08-16T18:06:47.870Z,58.00
2018-08-16T18:11:51.523Z,58.30
2018-08-16T18:16:55.078Z,58.50
2018-08-16T18:21:58.804Z,58.70
2018-08-16T18:27:02.538Z,58.90
2018-08-16T18:32:06.212Z,59.90
2018-08-16T18:37:09.814Z,59.70
2018-08-16T18:42:13.482Z,59.50
2018-08-16T18:47:17.151Z,60.10
2018-08-16T18:52:20.823Z,60.00
2018-08-16T18:57:24.444Z,60.00
2018-08-16T19:02:28.135Z,60.80
2018-08-16T19:07:31.989Z,60.30
2018-08-16T19:12:35.841Z,61.30
2018-08-16T19:17:39.721Z,61.50
2018-08-16T19:22:43.478Z,62.20
2018-08-16T19:27:47.641Z,62.50
2018-08-16T19:32:51.285Z,62.60
2018-08-16T19:37:55.023Z,63.50
2018-08-16T19:42:58.806Z,64.60
2018-08-16T19:48:02.600Z,64.40
2018-08-16T19:53:06.235Z,64.70
2018-08-16T19:58:13.535Z,64.60
2018-08-16T20:03:17.361Z,64.50
2018-08-16T20:08:21.173Z,64.00
2018-08-16T20:13:24.846Z,64.80
2018-08-16T20:18:29.580Z,64.70
2018-08-16T20:23:33.209Z,64.70
2018-08-16T20:28:36.888Z,65.20
2018-08-16T20:33:40.824Z,65.10
2018-08-16T20:38:44.470Z,65.50
2018-08-16T20:43:48.189Z,66.60
2018-08-16T20:48:51.928Z,66.40
2018-08-16T20:53:55.559Z,66.70
2018-08-16T20:58:59.190Z,67.20
2018-08-16T21:04:02.803Z,68.10
2018-08-16T21:09:08.181Z,69.30
2018-08-16T21:14:11.812Z,69.30
2018-08-16T21:19:15.488Z,70.10
2018-08-16T21:24:19.111Z,70.90
2018-08-16T21:29:22.888Z,71.40
2018-08-16T21:34:26.541Z,71.90
2018-08-16T21:39:30.170Z,72.40
2018-08-16T21:44:33.810Z,72.70
2018-08-16T21:49:37.408Z,72.90
2018-08-16T21:54:40.994Z,73.30
2018-08-16T21:59:44.592Z,73.70
2018-08-16T22:04:48.206Z,74.00
2018-08-16T22:09:51.841Z,74.30
2018-08-16T22:14:55.480Z,74.80
2018-08-16T22:19:59.138Z,75.50
2018-08-16T22:25:02.748Z,76.00
2018-08-16T22:30:06.536Z,76.10
2018-08-16T22:35:10.157Z,76.40
2018-08-16T22:40:14.181Z,76.50
2018-08-16T22:45:17.882Z,77.30
2018-08-16T22:50:21.476Z,76.00
2018-08-16T22:55:25.130Z,72.60
2018-08-16T23:00:28.784Z,71.80
2018-08-16T23:05:32.624Z,70.90
2018-08-16T23:10:36.294Z,70.90
2018-08-16T23:15:40.020Z,70.90
2018-08-16T23:20:43.604Z,72.10
2018-08-16T23:25:47.241Z,71.10
2018-08-16T23:30:50.896Z,73.10
2018-08-16T23:35:54.528Z,73.30
2018-08-16T23:40:58.174Z,73.80
2018-08-16T23:46:01.825Z,73.30
2018-08-16T23:51:05.495Z,73.30
2018-08-16T23:56:09.302Z,73.80
